Main page
METAR-TAF:

METAR-TAF

Airports :

Allama Iqbal International Airport

Lahore, Pakistan

latitude: 31-31N, longitude: 074-24E, elevation: 216 m

Current weather observation

The report was made 26 minutes ago, at 22:55 UTC
Calm wind
Temperature 27°C
Humidity 58%
Pressure 1002 hPa
Visibility: 4000 m
smoke

METAR: OPLA 252255Z 00000KT 4000 FU NSC 27/18 Q1002 NOSIG RMK QFE974 A29.61

Time: 04:21 (23:21 UTC)

Forecast

The report was made 7 hours and 36 minutes ago, at 15:45 UTC
Forecast valid from 25 at 18 UTC to 26 at 24 UTC
Wind 6 kt from the West/Southwest
Visibility: 4000 m
smoke
From UTC
Wind 10 kt from the Southeast
Visibility: 5000 m
haze
From UTC
Wind 8 kt from the Southeast
Visibility: 4000 m
smoke

TAF: OPLA 251545Z 2518/2624 24006KT 4000 FU NSC TX37/2610Z TN24/2600Z FM 25/0500 13010KT 5000 HZ NSC FM 26/1600 13008KT 4000 FU NSC

Weather observations and forecasts of more than 4000 airports (METAR and TAF reports).

The available stations are represented by yellow and red dots on the map.

Hover mouse over dot to see the name of the station.

Then click to see weather observations and forecasts.

To change the map : click on the green buttons with a black cross to zoom in, on the green button with a dash to zoom out, or on the green arrows for adjacent maps.


METAR-TAF: